sensor_id;sensor_type;location;lat;lon;timestamp;P1;durP1;ratioP1;P2;durP2;ratioP2
37483;SDS011;23337;52.212;9.926;2023-05-16T00:01:27;13.13;;;10.87;;
37483;SDS011;23337;52.212;9.926;2023-05-16T00:03:54;12.10;;;10.87;;
37483;SDS011;23337;52.212;9.926;2023-05-16T00:06:20;11.40;;;10.13;;
37483;SDS011;23337;52.212;9.926;2023-05-16T00:08:47;12.20;;;11.00;;
37483;SDS011;23337;52.212;9.926;2023-05-16T00:11:13;11.10;;;9.83;;
37483;SDS011;23337;52.212;9.926;2023-05-16T00:13:39;10.70;;;9.60;;
37483;SDS011;23337;52.212;9.926;2023-05-16T00:16:06;13.37;;;10.30;;
37483;SDS011;23337;52.212;9.926;2023-05-16T00:18:32;10.73;;;9.63;;
37483;SDS011;23337;52.212;9.926;2023-05-16T00:21:01;12.17;;;10.43;;
37483;SDS011;23337;52.212;9.926;2023-05-16T00:23:27;11.23;;;10.23;;
37483;SDS011;23337;52.212;9.926;2023-05-16T00:25:53;11.40;;;10.30;;
37483;SDS011;23337;52.212;9.926;2023-05-16T00:28:20;10.30;;;8.40;;
37483;SDS011;23337;52.212;9.926;2023-05-16T00:30:45;9.30;;;8.40;;
37483;SDS011;23337;52.212;9.926;2023-05-16T00:33:12;10.57;;;9.50;;
37483;SDS011;23337;52.212;9.926;2023-05-16T00:35:38;10.10;;;8.60;;
37483;SDS011;23337;52.212;9.926;2023-05-16T00:38:04;9.10;;;8.23;;
37483;SDS011;23337;52.212;9.926;2023-05-16T00:40:30;8.67;;;7.77;;
37483;SDS011;23337;52.212;9.926;2023-05-16T00:42:56;8.77;;;7.07;;
37483;SDS011;23337;52.212;9.926;2023-05-16T00:45:22;8.73;;;7.80;;
37483;SDS011;23337;52.212;9.926;2023-05-16T00:47:49;9.73;;;7.73;;
37483;SDS011;23337;52.212;9.926;2023-05-16T00:50:15;7.77;;;7.07;;
37483;SDS011;23337;52.212;9.926;2023-05-16T00:52:41;6.93;;;6.27;;
37483;SDS011;23337;52.212;9.926;2023-05-16T00:55:07;7.77;;;6.97;;
37483;SDS011;23337;52.212;9.926;2023-05-16T00:57:37;9.43;;;8.20;;
37483;SDS011;23337;52.212;9.926;2023-05-16T01:00:04;8.10;;;7.30;;
37483;SDS011;23337;52.212;9.926;2023-05-16T01:02:31;9.80;;;8.80;;
37483;SDS011;23337;52.212;9.926;2023-05-16T01:04:57;12.47;;;9.63;;
37483;SDS011;23337;52.212;9.926;2023-05-16T01:07:23;11.27;;;9.17;;
37483;SDS011;23337;52.212;9.926;2023-05-16T01:09:50;9.57;;;8.57;;
37483;SDS011;23337;52.212;9.926;2023-05-16T01:12:36;10.03;;;9.13;;
37483;SDS011;23337;52.212;9.926;2023-05-16T01:15:11;9.43;;;8.63;;
37483;SDS011;23337;52.212;9.926;2023-05-16T01:27:57;6.37;;;5.87;;
37483;SDS011;23337;52.212;9.926;2023-05-16T01:30:23;9.10;;;6.17;;
37483;SDS011;23337;52.212;9.926;2023-05-16T01:32:49;6.57;;;5.83;;
37483;SDS011;23337;52.212;9.926;2023-05-16T01:35:16;7.20;;;5.60;;
37483;SDS011;23337;52.212;9.926;2023-05-16T01:37:44;8.90;;;5.03;;
37483;SDS011;23337;52.212;9.926;2023-05-16T01:40:19;5.40;;;4.90;;
37483;SDS011;23337;52.212;9.926;2023-05-16T01:42:47;6.17;;;4.93;;
37483;SDS011;23337;52.212;9.926;2023-05-16T01:45:19;5.77;;;5.10;;
37483;SDS011;23337;52.212;9.926;2023-05-16T01:47:51;6.30;;;5.63;;
37483;SDS011;23337;52.212;9.926;2023-05-16T01:50:17;6.00;;;5.40;;
37483;SDS011;23337;52.212;9.926;2023-05-16T01:52:51;5.70;;;4.70;;
37483;SDS011;23337;52.212;9.926;2023-05-16T01:58:03;7.77;;;5.90;;
37483;SDS011;23337;52.212;9.926;2023-05-16T02:00:30;7.17;;;6.00;;
37483;SDS011;23337;52.212;9.926;2023-05-16T02:02:56;9.10;;;6.83;;
37483;SDS011;23337;52.212;9.926;2023-05-16T02:05:21;8.70;;;6.33;;
37483;SDS011;23337;52.212;9.926;2023-05-16T02:07:47;8.53;;;6.37;;
37483;SDS011;23337;52.212;9.926;2023-05-16T02:10:13;7.13;;;6.37;;
37483;SDS011;23337;52.212;9.926;2023-05-16T02:12:39;7.20;;;5.77;;
37483;SDS011;23337;52.212;9.926;2023-05-16T02:15:06;7.20;;;5.87;;
37483;SDS011;23337;52.212;9.926;2023-05-16T02:17:32;6.67;;;6.10;;
37483;SDS011;23337;52.212;9.926;2023-05-16T02:19:58;7.63;;;6.47;;
37483;SDS011;23337;52.212;9.926;2023-05-16T02:22:30;8.50;;;6.73;;
37483;SDS011;23337;52.212;9.926;2023-05-16T02:24:56;9.50;;;6.60;;
37483;SDS011;23337;52.212;9.926;2023-05-16T02:27:22;7.40;;;5.87;;
37483;SDS011;23337;52.212;9.926;2023-05-16T02:29:48;6.70;;;5.90;;
37483;SDS011;23337;52.212;9.926;2023-05-16T02:32:14;6.67;;;6.07;;
37483;SDS011;23337;52.212;9.926;2023-05-16T02:34:40;7.07;;;6.37;;
37483;SDS011;23337;52.212;9.926;2023-05-16T02:37:06;7.23;;;6.37;;
37483;SDS011;23337;52.212;9.926;2023-05-16T02:39:32;6.07;;;5.43;;
37483;SDS011;23337;52.212;9.926;2023-05-16T02:41:58;6.57;;;5.97;;
37483;SDS011;23337;52.212;9.926;2023-05-16T02:44:24;9.17;;;6.87;;
37483;SDS011;23337;52.212;9.926;2023-05-16T02:46:50;6.30;;;5.57;;
37483;SDS011;23337;52.212;9.926;2023-05-16T02:49:16;6.47;;;5.37;;
37483;SDS011;23337;52.212;9.926;2023-05-16T02:51:42;8.30;;;5.20;;
37483;SDS011;23337;52.212;9.926;2023-05-16T02:54:09;6.73;;;4.90;;
37483;SDS011;23337;52.212;9.926;2023-05-16T02:56:35;4.97;;;4.47;;
37483;SDS011;23337;52.212;9.926;2023-05-16T02:59:01;5.80;;;4.47;;
37483;SDS011;23337;52.212;9.926;2023-05-16T03:01:28;7.83;;;5.03;;
37483;SDS011;23337;52.212;9.926;2023-05-16T03:03:54;6.50;;;4.50;;
37483;SDS011;23337;52.212;9.926;2023-05-16T03:06:20;5.83;;;4.43;;
37483;SDS011;23337;52.212;9.926;2023-05-16T03:08:46;5.20;;;4.20;;
37483;SDS011;23337;52.212;9.926;2023-05-16T03:11:12;5.47;;;3.77;;
37483;SDS011;23337;52.212;9.926;2023-05-16T03:13:38;6.57;;;3.73;;
37483;SDS011;23337;52.212;9.926;2023-05-16T03:16:04;3.93;;;3.23;;
37483;SDS011;23337;52.212;9.926;2023-05-16T03:18:30;5.57;;;3.60;;
37483;SDS011;23337;52.212;9.926;2023-05-16T03:20:57;4.20;;;2.70;;
37483;SDS011;23337;52.212;9.926;2023-05-16T03:23:23;5.70;;;3.17;;
37483;SDS011;23337;52.212;9.926;2023-05-16T03:25:49;5.07;;;3.20;;
37483;SDS011;23337;52.212;9.926;2023-05-16T03:28:15;3.07;;;2.77;;
37483;SDS011;23337;52.212;9.926;2023-05-16T03:30:42;4.63;;;2.70;;
37483;SDS011;23337;52.212;9.926;2023-05-16T03:33:08;4.60;;;2.80;;
37483;SDS011;23337;52.212;9.926;2023-05-16T03:35:34;4.80;;;3.03;;
37483;SDS011;23337;52.212;9.926;2023-05-16T03:38:01;4.90;;;2.73;;
37483;SDS011;23337;52.212;9.926;2023-05-16T03:40:27;4.67;;;2.80;;
37483;SDS011;23337;52.212;9.926;2023-05-16T03:42:53;5.30;;;2.60;;
37483;SDS011;23337;52.212;9.926;2023-05-16T03:45:19;7.80;;;2.60;;
37483;SDS011;23337;52.212;9.926;2023-05-16T03:47:45;5.03;;;2.30;;
37483;SDS011;23337;52.212;9.926;2023-05-16T03:50:13;7.33;;;2.30;;
37483;SDS011;23337;52.212;9.926;2023-05-16T03:52:39;4.03;;;2.30;;
37483;SDS011;23337;52.212;9.926;2023-05-16T03:55:05;4.27;;;1.93;;
37483;SDS011;23337;52.212;9.926;2023-05-16T03:57:32;4.03;;;2.40;;
37483;SDS011;23337;52.212;9.926;2023-05-16T03:59:58;6.00;;;2.43;;
37483;SDS011;23337;52.212;9.926;2023-05-16T04:02:24;5.67;;;2.33;;
37483;SDS011;23337;52.212;9.926;2023-05-16T04:04:50;4.40;;;2.20;;
37483;SDS011;23337;52.212;9.926;2023-05-16T04:07:16;6.00;;;2.43;;
37483;SDS011;23337;52.212;9.926;2023-05-16T04:09:42;6.47;;;3.57;;
37483;SDS011;23337;52.212;9.926;2023-05-16T04:12:09;8.13;;;2.87;;
37483;SDS011;23337;52.212;9.926;2023-05-16T04:14:35;5.00;;;2.17;;
37483;SDS011;23337;52.212;9.926;2023-05-16T04:17:00;7.47;;;2.10;;
37483;SDS011;23337;52.212;9.926;2023-05-16T04:19:26;6.60;;;2.67;;
37483;SDS011;23337;52.212;9.926;2023-05-16T04:21:52;7.73;;;2.13;;
37483;SDS011;23337;52.212;9.926;2023-05-16T04:24:18;7.33;;;1.83;;
37483;SDS011;23337;52.212;9.926;2023-05-16T04:26:44;7.37;;;2.77;;
37483;SDS011;23337;52.212;9.926;2023-05-16T04:29:10;6.20;;;2.10;;
37483;SDS011;23337;52.212;9.926;2023-05-16T04:31:37;7.43;;;2.20;;
37483;SDS011;23337;52.212;9.926;2023-05-16T04:34:03;6.67;;;2.33;;
37483;SDS011;23337;52.212;9.926;2023-05-16T04:36:29;6.00;;;2.10;;
37483;SDS011;23337;52.212;9.926;2023-05-16T04:38:56;4.40;;;2.10;;
37483;SDS011;23337;52.212;9.926;2023-05-16T04:41:22;7.83;;;2.43;;
37483;SDS011;23337;52.212;9.926;2023-05-16T04:43:49;6.07;;;2.20;;
37483;SDS011;23337;52.212;9.926;2023-05-16T04:46:15;8.50;;;2.80;;
37483;SDS011;23337;52.212;9.926;2023-05-16T04:48:41;5.10;;;2.30;;
37483;SDS011;23337;52.212;9.926;2023-05-16T04:51:07;6.60;;;2.23;;
37483;SDS011;23337;52.212;9.926;2023-05-16T04:53:33;4.30;;;1.73;;
37483;SDS011;23337;52.212;9.926;2023-05-16T04:55:59;4.70;;;2.50;;
37483;SDS011;23337;52.212;9.926;2023-05-16T04:58:25;6.53;;;1.83;;
37483;SDS011;23337;52.212;9.926;2023-05-16T05:00:51;5.87;;;2.00;;
37483;SDS011;23337;52.212;9.926;2023-05-16T05:03:17;9.83;;;2.37;;
37483;SDS011;23337;52.212;9.926;2023-05-16T05:05:43;8.50;;;2.23;;
37483;SDS011;23337;52.212;9.926;2023-05-16T05:08:10;7.90;;;2.17;;
37483;SDS011;23337;52.212;9.926;2023-05-16T05:10:36;7.73;;;2.47;;
37483;SDS011;23337;52.212;9.926;2023-05-16T05:13:02;8.57;;;2.67;;
37483;SDS011;23337;52.212;9.926;2023-05-16T05:15:28;6.93;;;2.10;;
37483;SDS011;23337;52.212;9.926;2023-05-16T05:17:54;6.73;;;2.40;;
37483;SDS011;23337;52.212;9.926;2023-05-16T05:20:20;7.67;;;1.87;;
37483;SDS011;23337;52.212;9.926;2023-05-16T05:22:46;6.73;;;2.10;;
37483;SDS011;23337;52.212;9.926;2023-05-16T05:25:12;12.83;;;2.57;;
37483;SDS011;23337;52.212;9.926;2023-05-16T05:27:38;7.60;;;3.00;;
37483;SDS011;23337;52.212;9.926;2023-05-16T05:30:04;15.57;;;3.27;;
37483;SDS011;23337;52.212;9.926;2023-05-16T05:32:31;9.90;;;2.20;;
37483;SDS011;23337;52.212;9.926;2023-05-16T05:34:56;7.87;;;2.03;;
37483;SDS011;23337;52.212;9.926;2023-05-16T05:37:22;10.07;;;2.90;;
37483;SDS011;23337;52.212;9.926;2023-05-16T05:39:49;8.77;;;2.13;;
37483;SDS011;23337;52.212;9.926;2023-05-16T05:42:15;8.27;;;2.07;;
37483;SDS011;23337;52.212;9.926;2023-05-16T05:44:41;8.47;;;2.87;;
37483;SDS011;23337;52.212;9.926;2023-05-16T05:47:07;13.37;;;2.40;;
37483;SDS011;23337;52.212;9.926;2023-05-16T05:49:33;7.20;;;1.70;;
37483;SDS011;23337;52.212;9.926;2023-05-16T05:51:59;11.33;;;2.63;;
37483;SDS011;23337;52.212;9.926;2023-05-16T05:54:25;11.17;;;2.60;;
37483;SDS011;23337;52.212;9.926;2023-05-16T05:56:51;8.50;;;2.00;;
37483;SDS011;23337;52.212;9.926;2023-05-16T05:59:17;12.97;;;2.37;;
37483;SDS011;23337;52.212;9.926;2023-05-16T06:01:43;13.33;;;3.20;;
37483;SDS011;23337;52.212;9.926;2023-05-16T06:04:09;11.43;;;2.60;;
37483;SDS011;23337;52.212;9.926;2023-05-16T06:06:36;14.83;;;2.60;;
37483;SDS011;23337;52.212;9.926;2023-05-16T06:09:02;17.03;;;2.20;;
37483;SDS011;23337;52.212;9.926;2023-05-16T06:11:28;14.70;;;2.87;;
37483;SDS011;23337;52.212;9.926;2023-05-16T06:13:54;11.53;;;3.00;;
37483;SDS011;23337;52.212;9.926;2023-05-16T06:16:23;9.03;;;1.97;;
37483;SDS011;23337;52.212;9.926;2023-05-16T06:18:49;16.10;;;1.97;;
37483;SDS011;23337;52.212;9.926;2023-05-16T06:21:15;15.27;;;2.53;;
37483;SDS011;23337;52.212;9.926;2023-05-16T06:23:41;11.67;;;2.07;;
37483;SDS011;23337;52.212;9.926;2023-05-16T06:26:07;14.40;;;2.27;;
37483;SDS011;23337;52.212;9.926;2023-05-16T06:28:33;11.20;;;1.90;;
37483;SDS011;23337;52.212;9.926;2023-05-16T06:30:59;11.60;;;3.67;;
37483;SDS011;23337;52.212;9.926;2023-05-16T06:33:25;6.47;;;1.67;;
37483;SDS011;23337;52.212;9.926;2023-05-16T06:35:51;11.10;;;2.07;;
37483;SDS011;23337;52.212;9.926;2023-05-16T06:38:18;10.77;;;1.80;;
37483;SDS011;23337;52.212;9.926;2023-05-16T06:40:44;10.10;;;2.10;;
37483;SDS011;23337;52.212;9.926;2023-05-16T06:43:10;12.60;;;2.23;;
37483;SDS011;23337;52.212;9.926;2023-05-16T06:45:36;9.73;;;2.27;;
37483;SDS011;23337;52.212;9.926;2023-05-16T06:48:03;8.80;;;1.80;;
37483;SDS011;23337;52.212;9.926;2023-05-16T06:50:29;5.33;;;1.33;;
37483;SDS011;23337;52.212;9.926;2023-05-16T06:52:55;5.90;;;1.43;;
37483;SDS011;23337;52.212;9.926;2023-05-16T06:55:21;16.17;;;2.30;;
37483;SDS011;23337;52.212;9.926;2023-05-16T06:57:47;8.67;;;1.83;;
37483;SDS011;23337;52.212;9.926;2023-05-16T07:00:13;13.40;;;2.10;;
37483;SDS011;23337;52.212;9.926;2023-05-16T07:02:39;11.83;;;2.63;;
37483;SDS011;23337;52.212;9.926;2023-05-16T07:05:05;11.57;;;1.67;;
37483;SDS011;23337;52.212;9.926;2023-05-16T07:07:31;7.00;;;1.73;;
37483;SDS011;23337;52.212;9.926;2023-05-16T07:09:57;10.07;;;2.20;;
37483;SDS011;23337;52.212;9.926;2023-05-16T07:12:23;9.83;;;1.83;;
37483;SDS011;23337;52.212;9.926;2023-05-16T07:14:50;6.30;;;1.50;;
37483;SDS011;23337;52.212;9.926;2023-05-16T07:17:16;9.93;;;3.07;;
37483;SDS011;23337;52.212;9.926;2023-05-16T07:19:42;5.47;;;1.50;;
37483;SDS011;23337;52.212;9.926;2023-05-16T07:22:08;10.83;;;2.07;;
37483;SDS011;23337;52.212;9.926;2023-05-16T07:24:36;12.07;;;2.00;;
37483;SDS011;23337;52.212;9.926;2023-05-16T07:27:02;7.73;;;1.50;;
37483;SDS011;23337;52.212;9.926;2023-05-16T07:29:27;12.40;;;3.07;;
37483;SDS011;23337;52.212;9.926;2023-05-16T07:31:54;12.07;;;3.10;;
37483;SDS011;23337;52.212;9.926;2023-05-16T07:34:20;6.37;;;1.53;;
37483;SDS011;23337;52.212;9.926;2023-05-16T07:36:46;8.23;;;2.07;;
37483;SDS011;23337;52.212;9.926;2023-05-16T07:39:12;7.47;;;1.63;;
37483;SDS011;23337;52.212;9.926;2023-05-16T07:41:38;10.93;;;2.17;;
37483;SDS011;23337;52.212;9.926;2023-05-16T07:44:04;8.20;;;1.67;;
37483;SDS011;23337;52.212;9.926;2023-05-16T07:46:30;11.37;;;1.50;;
37483;SDS011;23337;52.212;9.926;2023-05-16T07:48:56;6.90;;;1.23;;
37483;SDS011;23337;52.212;9.926;2023-05-16T07:51:22;5.87;;;1.27;;
37483;SDS011;23337;52.212;9.926;2023-05-16T07:53:48;7.40;;;1.10;;
37483;SDS011;23337;52.212;9.926;2023-05-16T07:56:15;13.47;;;1.37;;
37483;SDS011;23337;52.212;9.926;2023-05-16T07:58:41;9.57;;;1.40;;
37483;SDS011;23337;52.212;9.926;2023-05-16T08:01:07;8.83;;;1.40;;
37483;SDS011;23337;52.212;9.926;2023-05-16T08:03:34;6.33;;;1.67;;
37483;SDS011;23337;52.212;9.926;2023-05-16T08:06:00;4.97;;;1.43;;
37483;SDS011;23337;52.212;9.926;2023-05-16T08:08:26;3.03;;;1.07;;
37483;SDS011;23337;52.212;9.926;2023-05-16T08:10:52;7.30;;;1.77;;
37483;SDS011;23337;52.212;9.926;2023-05-16T08:13:18;7.30;;;1.60;;
37483;SDS011;23337;52.212;9.926;2023-05-16T08:15:44;5.47;;;1.00;;
37483;SDS011;23337;52.212;9.926;2023-05-16T08:18:13;5.20;;;1.03;;
37483;SDS011;23337;52.212;9.926;2023-05-16T08:20:40;7.40;;;1.60;;
37483;SDS011;23337;52.212;9.926;2023-05-16T08:23:06;6.67;;;1.47;;
37483;SDS011;23337;52.212;9.926;2023-05-16T08:25:32;3.93;;;1.20;;
37483;SDS011;23337;52.212;9.926;2023-05-16T08:27:58;6.00;;;1.77;;
37483;SDS011;23337;52.212;9.926;2023-05-16T08:30:26;7.63;;;1.23;;
37483;SDS011;23337;52.212;9.926;2023-05-16T08:32:52;6.43;;;1.20;;
37483;SDS011;23337;52.212;9.926;2023-05-16T08:35:18;6.00;;;1.73;;
37483;SDS011;23337;52.212;9.926;2023-05-16T08:37:44;8.60;;;1.43;;
37483;SDS011;23337;52.212;9.926;2023-05-16T08:40:10;4.13;;;1.00;;
37483;SDS011;23337;52.212;9.926;2023-05-16T08:42:38;4.90;;;1.00;;
37483;SDS011;23337;52.212;9.926;2023-05-16T08:45:05;5.43;;;1.40;;
37483;SDS011;23337;52.212;9.926;2023-05-16T08:47:31;4.30;;;1.17;;
37483;SDS011;23337;52.212;9.926;2023-05-16T08:49:58;5.93;;;1.37;;
37483;SDS011;23337;52.212;9.926;2023-05-16T08:52:26;5.40;;;0.97;;
37483;SDS011;23337;52.212;9.926;2023-05-16T08:54:56;6.77;;;1.80;;
37483;SDS011;23337;52.212;9.926;2023-05-16T08:57:22;8.17;;;1.50;;
37483;SDS011;23337;52.212;9.926;2023-05-16T08:59:48;6.23;;;1.50;;
37483;SDS011;23337;52.212;9.926;2023-05-16T09:02:18;4.40;;;0.87;;
37483;SDS011;23337;52.212;9.926;2023-05-16T09:04:44;5.73;;;1.37;;
37483;SDS011;23337;52.212;9.926;2023-05-16T09:07:11;6.40;;;1.90;;
37483;SDS011;23337;52.212;9.926;2023-05-16T09:09:37;8.60;;;1.20;;
37483;SDS011;23337;52.212;9.926;2023-05-16T09:12:03;5.97;;;2.17;;
37483;SDS011;23337;52.212;9.926;2023-05-16T09:14:29;7.57;;;1.43;;
37483;SDS011;23337;52.212;9.926;2023-05-16T09:17:05;3.80;;;1.03;;
37483;SDS011;23337;52.212;9.926;2023-05-16T09:19:37;5.27;;;1.20;;
37483;SDS011;23337;52.212;9.926;2023-05-16T09:22:05;6.17;;;1.37;;
37483;SDS011;23337;52.212;9.926;2023-05-16T09:24:31;6.40;;;1.50;;
37483;SDS011;23337;52.212;9.926;2023-05-16T09:27:06;5.23;;;1.27;;
37483;SDS011;23337;52.212;9.926;2023-05-16T09:29:33;6.27;;;1.33;;
37483;SDS011;23337;52.212;9.926;2023-05-16T09:32:12;7.80;;;1.07;;
37483;SDS011;23337;52.212;9.926;2023-05-16T09:34:42;5.93;;;1.33;;
37483;SDS011;23337;52.212;9.926;2023-05-16T09:37:09;6.93;;;1.97;;
37483;SDS011;23337;52.212;9.926;2023-05-16T09:39:36;6.47;;;1.03;;
37483;SDS011;23337;52.212;9.926;2023-05-16T09:42:01;9.30;;;1.30;;
37483;SDS011;23337;52.212;9.926;2023-05-16T09:44:28;3.90;;;0.93;;
37483;SDS011;23337;52.212;9.926;2023-05-16T09:46:55;5.17;;;1.13;;
37483;SDS011;23337;52.212;9.926;2023-05-16T09:49:22;5.90;;;1.63;;
37483;SDS011;23337;52.212;9.926;2023-05-16T09:51:48;5.17;;;1.10;;
37483;SDS011;23337;52.212;9.926;2023-05-16T09:54:15;4.07;;;1.87;;
37483;SDS011;23337;52.212;9.926;2023-05-16T09:56:47;6.50;;;1.33;;
37483;SDS011;23337;52.212;9.926;2023-05-16T09:59:14;10.10;;;1.93;;
37483;SDS011;23337;52.212;9.926;2023-05-16T10:01:40;6.30;;;1.10;;
37483;SDS011;23337;52.212;9.926;2023-05-16T10:04:07;6.37;;;1.20;;
37483;SDS011;23337;52.212;9.926;2023-05-16T10:06:37;1.87;;;0.80;;
37483;SDS011;23337;52.212;9.926;2023-05-16T10:09:03;6.50;;;0.70;;
37483;SDS011;23337;52.212;9.926;2023-05-16T10:11:30;5.83;;;1.13;;
37483;SDS011;23337;52.212;9.926;2023-05-16T10:13:56;4.03;;;1.23;;
37483;SDS011;23337;52.212;9.926;2023-05-16T10:16:22;5.27;;;1.00;;
37483;SDS011;23337;52.212;9.926;2023-05-16T10:18:48;3.20;;;1.63;;
37483;SDS011;23337;52.212;9.926;2023-05-16T10:21:15;4.27;;;0.90;;
37483;SDS011;23337;52.212;9.926;2023-05-16T10:23:43;3.63;;;0.80;;
37483;SDS011;23337;52.212;9.926;2023-05-16T10:26:11;6.73;;;1.33;;
37483;SDS011;23337;52.212;9.926;2023-05-16T10:28:38;7.93;;;1.13;;
37483;SDS011;23337;52.212;9.926;2023-05-16T10:31:05;2.93;;;1.03;;
37483;SDS011;23337;52.212;9.926;2023-05-16T10:33:32;3.57;;;1.40;;
37483;SDS011;23337;52.212;9.926;2023-05-16T10:36:00;2.87;;;1.10;;
37483;SDS011;23337;52.212;9.926;2023-05-16T10:38:26;2.90;;;0.80;;
37483;SDS011;23337;52.212;9.926;2023-05-16T10:40:53;2.10;;;0.73;;
37483;SDS011;23337;52.212;9.926;2023-05-16T10:43:26;5.33;;;1.13;;
37483;SDS011;23337;52.212;9.926;2023-05-16T10:45:56;5.67;;;1.20;;
37483;SDS011;23337;52.212;9.926;2023-05-16T10:48:32;2.07;;;0.60;;
37483;SDS011;23337;52.212;9.926;2023-05-16T10:50:58;4.30;;;1.07;;
37483;SDS011;23337;52.212;9.926;2023-05-16T11:06:33;2.73;;;0.80;;
37483;SDS011;23337;52.212;9.926;2023-05-16T11:14:06;2.07;;;0.70;;
37483;SDS011;23337;52.212;9.926;2023-05-16T11:16:33;4.10;;;0.83;;
37483;SDS011;23337;52.212;9.926;2023-05-16T11:19:05;1.50;;;0.43;;
37483;SDS011;23337;52.212;9.926;2023-05-16T11:24:37;1.73;;;0.60;;
37483;SDS011;23337;52.212;9.926;2023-05-16T11:27:03;1.60;;;0.70;;
37483;SDS011;23337;52.212;9.926;2023-05-16T11:29:33;3.27;;;0.83;;
37483;SDS011;23337;52.212;9.926;2023-05-16T11:32:00;4.47;;;0.90;;
37483;SDS011;23337;52.212;9.926;2023-05-16T11:34:26;4.37;;;0.80;;
37483;SDS011;23337;52.212;9.926;2023-05-16T11:36:52;2.83;;;0.77;;
37483;SDS011;23337;52.212;9.926;2023-05-16T11:39:18;2.80;;;0.73;;
37483;SDS011;23337;52.212;9.926;2023-05-16T11:41:44;4.83;;;1.10;;
37483;SDS011;23337;52.212;9.926;2023-05-16T11:44:11;2.20;;;0.40;;
37483;SDS011;23337;52.212;9.926;2023-05-16T11:46:40;1.93;;;0.73;;
37483;SDS011;23337;52.212;9.926;2023-05-16T11:49:06;2.97;;;1.00;;
37483;SDS011;23337;52.212;9.926;2023-05-16T11:51:33;2.07;;;0.50;;
37483;SDS011;23337;52.212;9.926;2023-05-16T11:53:59;2.73;;;0.80;;
37483;SDS011;23337;52.212;9.926;2023-05-16T11:56:28;6.17;;;0.77;;
37483;SDS011;23337;52.212;9.926;2023-05-16T11:58:55;4.33;;;0.80;;
37483;SDS011;23337;52.212;9.926;2023-05-16T12:01:23;3.00;;;1.00;;
37483;SDS011;23337;52.212;9.926;2023-05-16T12:03:53;3.57;;;1.30;;
37483;SDS011;23337;52.212;9.926;2023-05-16T12:06:19;6.60;;;0.90;;
37483;SDS011;23337;52.212;9.926;2023-05-16T12:08:48;3.13;;;0.63;;
37483;SDS011;23337;52.212;9.926;2023-05-16T12:11:15;6.23;;;1.47;;
37483;SDS011;23337;52.212;9.926;2023-05-16T12:13:40;6.77;;;1.40;;
37483;SDS011;23337;52.212;9.926;2023-05-16T12:16:06;4.73;;;1.03;;
37483;SDS011;23337;52.212;9.926;2023-05-16T12:18:33;4.53;;;1.13;;
37483;SDS011;23337;52.212;9.926;2023-05-16T12:20:59;5.83;;;0.97;;
37483;SDS011;23337;52.212;9.926;2023-05-16T12:23:25;5.20;;;1.57;;
37483;SDS011;23337;52.212;9.926;2023-05-16T12:25:51;4.47;;;1.40;;
37483;SDS011;23337;52.212;9.926;2023-05-16T12:28:19;6.23;;;1.23;;
37483;SDS011;23337;52.212;9.926;2023-05-16T12:30:45;5.07;;;1.43;;
37483;SDS011;23337;52.212;9.926;2023-05-16T12:33:12;3.33;;;0.80;;
37483;SDS011;23337;52.212;9.926;2023-05-16T12:35:39;4.20;;;1.00;;
37483;SDS011;23337;52.212;9.926;2023-05-16T12:38:09;3.67;;;0.97;;
37483;SDS011;23337;52.212;9.926;2023-05-16T12:40:36;9.90;;;4.00;;
37483;SDS011;23337;52.212;9.926;2023-05-16T12:43:03;4.53;;;1.87;;
37483;SDS011;23337;52.212;9.926;2023-05-16T12:45:29;4.93;;;2.37;;
37483;SDS011;23337;52.212;9.926;2023-05-16T12:47:55;5.77;;;1.80;;
37483;SDS011;23337;52.212;9.926;2023-05-16T12:50:21;3.10;;;1.23;;
37483;SDS011;23337;52.212;9.926;2023-05-16T12:52:51;3.33;;;0.83;;
37483;SDS011;23337;52.212;9.926;2023-05-16T12:55:18;2.60;;;0.80;;
37483;SDS011;23337;52.212;9.926;2023-05-16T12:57:44;6.17;;;1.20;;
37483;SDS011;23337;52.212;9.926;2023-05-16T13:00:12;1.97;;;0.83;;
37483;SDS011;23337;52.212;9.926;2023-05-16T13:02:38;2.20;;;0.90;;
37483;SDS011;23337;52.212;9.926;2023-05-16T13:05:05;2.70;;;1.00;;
37483;SDS011;23337;52.212;9.926;2023-05-16T13:07:37;3.57;;;1.10;;
37483;SDS011;23337;52.212;9.926;2023-05-16T13:10:07;5.00;;;1.00;;
37483;SDS011;23337;52.212;9.926;2023-05-16T13:12:39;2.73;;;1.10;;
37483;SDS011;23337;52.212;9.926;2023-05-16T13:15:05;2.20;;;1.17;;
37483;SDS011;23337;52.212;9.926;2023-05-16T13:17:35;3.47;;;0.80;;
37483;SDS011;23337;52.212;9.926;2023-05-16T13:20:01;6.10;;;1.63;;
37483;SDS011;23337;52.212;9.926;2023-05-16T13:22:32;3.93;;;1.60;;
37483;SDS011;23337;52.212;9.926;2023-05-16T13:24:58;9.17;;;1.53;;
37483;SDS011;23337;52.212;9.926;2023-05-16T13:27:24;4.33;;;1.03;;
37483;SDS011;23337;52.212;9.926;2023-05-16T13:29:50;7.17;;;1.23;;
37483;SDS011;23337;52.212;9.926;2023-05-16T13:32:16;5.50;;;1.20;;
37483;SDS011;23337;52.212;9.926;2023-05-16T13:34:42;4.23;;;1.10;;
37483;SDS011;23337;52.212;9.926;2023-05-16T13:37:09;4.77;;;1.10;;
37483;SDS011;23337;52.212;9.926;2023-05-16T13:39:34;4.47;;;1.10;;
37483;SDS011;23337;52.212;9.926;2023-05-16T13:42:01;5.40;;;1.20;;
37483;SDS011;23337;52.212;9.926;2023-05-16T13:44:27;3.70;;;0.83;;
37483;SDS011;23337;52.212;9.926;2023-05-16T13:46:53;3.73;;;0.77;;
37483;SDS011;23337;52.212;9.926;2023-05-16T13:49:19;6.00;;;1.10;;
37483;SDS011;23337;52.212;9.926;2023-05-16T13:51:46;2.70;;;0.70;;
37483;SDS011;23337;52.212;9.926;2023-05-16T13:54:12;5.17;;;1.33;;
37483;SDS011;23337;52.212;9.926;2023-05-16T13:56:38;10.67;;;1.20;;
37483;SDS011;23337;52.212;9.926;2023-05-16T13:59:04;5.70;;;1.30;;
37483;SDS011;23337;52.212;9.926;2023-05-16T14:01:30;3.47;;;1.27;;
37483;SDS011;23337;52.212;9.926;2023-05-16T14:03:55;6.77;;;0.90;;
37483;SDS011;23337;52.212;9.926;2023-05-16T14:06:22;6.97;;;0.90;;
37483;SDS011;23337;52.212;9.926;2023-05-16T14:08:48;4.73;;;0.93;;
37483;SDS011;23337;52.212;9.926;2023-05-16T14:11:14;3.43;;;0.70;;
37483;SDS011;23337;52.212;9.926;2023-05-16T14:13:40;1.87;;;0.50;;
37483;SDS011;23337;52.212;9.926;2023-05-16T14:16:06;5.77;;;0.70;;
37483;SDS011;23337;52.212;9.926;2023-05-16T14:18:32;5.73;;;1.70;;
37483;SDS011;23337;52.212;9.926;2023-05-16T14:20:58;4.03;;;0.70;;
37483;SDS011;23337;52.212;9.926;2023-05-16T14:23:24;2.37;;;1.07;;
37483;SDS011;23337;52.212;9.926;2023-05-16T14:25:50;2.27;;;0.60;;
37483;SDS011;23337;52.212;9.926;2023-05-16T14:28:16;1.13;;;0.60;;
37483;SDS011;23337;52.212;9.926;2023-05-16T14:30:42;3.30;;;0.60;;
37483;SDS011;23337;52.212;9.926;2023-05-16T14:33:08;2.83;;;0.97;;
37483;SDS011;23337;52.212;9.926;2023-05-16T14:35:34;3.93;;;1.60;;
37483;SDS011;23337;52.212;9.926;2023-05-16T14:38:02;7.30;;;1.47;;
37483;SDS011;23337;52.212;9.926;2023-05-16T14:40:28;0.80;;;0.47;;
37483;SDS011;23337;52.212;9.926;2023-05-16T14:42:54;4.43;;;0.90;;
37483;SDS011;23337;52.212;9.926;2023-05-16T14:45:20;2.87;;;1.03;;
37483;SDS011;23337;52.212;9.926;2023-05-16T14:47:46;3.27;;;1.10;;
37483;SDS011;23337;52.212;9.926;2023-05-16T14:50:12;2.43;;;0.60;;
37483;SDS011;23337;52.212;9.926;2023-05-16T14:52:38;4.77;;;1.00;;
37483;SDS011;23337;52.212;9.926;2023-05-16T14:55:05;2.77;;;0.80;;
37483;SDS011;23337;52.212;9.926;2023-05-16T14:57:31;3.87;;;0.83;;
37483;SDS011;23337;52.212;9.926;2023-05-16T14:59:57;4.83;;;0.87;;
37483;SDS011;23337;52.212;9.926;2023-05-16T15:02:23;3.97;;;0.67;;
37483;SDS011;23337;52.212;9.926;2023-05-16T15:04:50;6.17;;;1.63;;
37483;SDS011;23337;52.212;9.926;2023-05-16T15:07:17;6.20;;;1.20;;
37483;SDS011;23337;52.212;9.926;2023-05-16T15:09:44;3.67;;;0.50;;
37483;SDS011;23337;52.212;9.926;2023-05-16T15:12:10;3.37;;;0.70;;
37483;SDS011;23337;52.212;9.926;2023-05-16T15:14:36;3.80;;;1.30;;
37483;SDS011;23337;52.212;9.926;2023-05-16T15:17:02;4.17;;;0.80;;